createdAt,value
2022-10-11T00:01:52.434Z,9.77
2022-10-11T00:04:19.003Z,9.82
2022-10-11T00:06:47.116Z,7.30
2022-10-11T00:09:14.581Z,7.45
2022-10-11T00:11:41.204Z,6.82
2022-10-11T00:14:08.094Z,7.20
2022-10-11T00:16:34.905Z,9.65
2022-10-11T00:19:01.541Z,7.85
2022-10-11T00:21:28.101Z,9.00
2022-10-11T00:23:54.653Z,9.32
2022-10-11T00:26:21.266Z,7.03
2022-10-11T00:28:47.844Z,9.43
2022-10-11T00:31:16.400Z,9.25
2022-10-11T00:33:42.964Z,7.20
2022-10-11T00:36:10.398Z,6.95
2022-10-11T00:38:37.169Z,10.50
2022-10-11T00:41:03.799Z,7.28
2022-10-11T00:43:31.824Z,5.43
2022-10-11T00:45:58.333Z,6.43
2022-10-11T00:48:27.581Z,10.75
2022-10-11T00:50:57.735Z,9.25
2022-10-11T00:53:25.354Z,7.72
2022-10-11T00:56:00.200Z,7.35
2022-10-11T00:58:26.951Z,5.00
2022-10-11T01:00:54.214Z,7.60
2022-10-11T01:03:26.729Z,11.30
2022-10-11T01:05:53.467Z,14.40
2022-10-11T01:08:20.684Z,11.35
2022-10-11T01:10:47.398Z,9.10
2022-10-11T01:13:40.515Z,10.82
2022-10-11T01:16:21.551Z,8.60
2022-10-11T01:18:56.671Z,6.68
2022-10-11T01:21:32.116Z,6.38
2022-10-11T01:24:53.950Z,5.65
2022-10-11T01:27:26.352Z,7.73
2022-10-11T01:30:16.796Z,9.85
2022-10-11T01:32:50.973Z,8.10
2022-10-11T01:35:27.669Z,9.23
2022-10-11T01:38:07.878Z,8.38
2022-10-11T01:40:39.282Z,9.35
2022-10-11T01:43:06.526Z,11.35
2022-10-11T01:45:34.465Z,6.70
2022-10-11T01:48:06.880Z,7.22
2022-10-11T01:50:38.327Z,8.00
2022-10-11T01:53:12.579Z,6.15
2022-10-11T01:56:05.516Z,10.27
2022-10-11T01:58:47.117Z,9.48
2022-10-11T02:01:20.074Z,6.20
2022-10-11T02:03:52.311Z,6.97
2022-10-11T02:06:21.882Z,10.77
2022-10-11T02:09:17.627Z,6.65
2022-10-11T02:11:44.435Z,10.52
2022-10-11T02:14:23.061Z,7.93
2022-10-11T02:16:54.922Z,12.77
2022-10-11T02:21:54.480Z,7.25
2022-10-11T02:24:34.708Z,7.95
2022-10-11T02:27:03.884Z,5.53
2022-10-11T02:29:34.948Z,5.13
2022-10-11T02:32:02.501Z,7.20
2022-10-11T02:34:36.460Z,9.43
2022-10-11T02:37:06.147Z,3.67
2022-10-11T02:39:53.858Z,7.07
2022-10-11T02:42:59.087Z,8.60
2022-10-11T02:45:31.744Z,7.70
2022-10-11T02:47:59.319Z,7.43
2022-10-11T02:50:27.380Z,4.95
2022-10-11T02:52:53.967Z,6.50
2022-10-11T02:55:20.819Z,8.23
2022-10-11T02:57:47.467Z,11.70
2022-10-11T03:00:14.707Z,5.00
2022-10-11T03:02:41.334Z,9.20
2022-10-11T03:05:08.299Z,6.22
2022-10-11T03:07:34.889Z,7.38
2022-10-11T03:10:02.140Z,4.97
2022-10-11T03:12:28.704Z,7.15
2022-10-11T03:14:55.304Z,6.55
2022-10-11T03:17:36.124Z,8.35
2022-10-11T03:20:07.301Z,6.50
2022-10-11T03:22:33.874Z,7.32
2022-10-11T03:25:03.980Z,11.75
2022-10-11T03:27:32.099Z,6.00
2022-10-11T03:29:58.955Z,9.30
2022-10-11T03:32:25.958Z,10.90
2022-10-11T03:34:52.556Z,7.82
2022-10-11T03:37:19.135Z,5.30
2022-10-11T03:39:45.956Z,6.63
2022-10-11T03:42:13.862Z,4.55
2022-10-11T03:44:41.934Z,7.00
2022-10-11T03:47:08.654Z,8.13
2022-10-11T03:49:38.811Z,7.63
2022-10-11T03:52:09.497Z,5.85
2022-10-11T03:54:36.072Z,10.80
2022-10-11T03:57:02.687Z,6.35
2022-10-11T03:59:29.283Z,8.88
2022-10-11T04:01:55.907Z,10.43
2022-10-11T04:04:22.508Z,7.13
2022-10-11T04:06:49.075Z,4.03
2022-10-11T04:09:15.635Z,6.55
2022-10-11T04:11:42.385Z,7.18
2022-10-11T04:14:08.943Z,5.10
2022-10-11T04:16:38.519Z,6.28
2022-10-11T04:19:05.901Z,10.82
2022-10-11T04:21:32.583Z,5.05
2022-10-11T04:23:59.187Z,7.60
2022-10-11T04:26:25.820Z,7.63
2022-10-11T04:28:52.463Z,7.45
2022-10-11T04:31:19.484Z,6.82
2022-10-11T04:33:46.136Z,9.63
2022-10-11T04:36:12.772Z,4.30
2022-10-11T04:38:39.480Z,3.38
2022-10-11T04:41:07.854Z,6.68
2022-10-11T04:43:34.481Z,4.93
2022-10-11T04:46:01.139Z,4.93
2022-10-11T04:48:28.175Z,8.85
2022-10-11T04:50:54.748Z,4.50
2022-10-11T04:53:21.423Z,5.20
2022-10-11T04:56:05.789Z,5.78
2022-10-11T04:58:35.031Z,5.35
2022-10-11T05:01:01.655Z,6.60
2022-10-11T05:03:28.556Z,6.85
2022-10-11T05:05:55.362Z,9.77
2022-10-11T05:08:25.391Z,9.93
2022-10-11T05:10:57.127Z,5.22
2022-10-11T05:13:24.515Z,5.95
2022-10-11T05:15:51.637Z,8.60
2022-10-11T05:18:18.600Z,6.57
2022-10-11T05:20:45.720Z,10.35
2022-10-11T05:23:12.678Z,6.97
2022-10-11T05:25:39.274Z,7.22
2022-10-11T05:28:06.052Z,7.20
2022-10-11T05:30:32.623Z,5.05
2022-10-11T05:33:00.010Z,7.22
2022-10-11T05:35:26.578Z,8.05
2022-10-11T05:37:53.142Z,5.25
2022-10-11T05:40:19.723Z,5.68
2022-10-11T05:42:46.349Z,8.80
2022-10-11T05:45:12.948Z,7.60
2022-10-11T05:47:39.504Z,8.27
2022-10-11T05:50:06.495Z,6.57
2022-10-11T05:52:33.093Z,6.80
2022-10-11T05:54:59.631Z,10.07
2022-10-11T05:57:26.196Z,10.23
2022-10-11T05:59:52.775Z,9.07
2022-10-11T06:02:19.330Z,14.07
2022-10-11T06:04:46.002Z,8.07
2022-10-11T06:07:12.567Z,7.65
2022-10-11T06:09:39.664Z,7.47
2022-10-11T06:12:06.541Z,6.05
2022-10-11T06:14:33.158Z,6.95
2022-10-11T06:16:59.703Z,11.85
2022-10-11T06:19:26.393Z,4.18
2022-10-11T06:21:53.029Z,7.30
2022-10-11T06:24:19.677Z,8.48
2022-10-11T06:26:48.946Z,8.48
2022-10-11T06:29:15.566Z,6.38
2022-10-11T06:31:42.176Z,8.85
2022-10-11T06:34:08.715Z,6.03
2022-10-11T06:36:35.259Z,6.82
2022-10-11T06:39:01.929Z,7.15
2022-10-11T06:41:30.107Z,8.18
2022-10-11T06:43:57.287Z,8.75
2022-10-11T06:46:26.555Z,7.32
2022-10-11T06:48:54.010Z,5.32
2022-10-11T06:51:22.096Z,8.25
2022-10-11T06:53:53.310Z,10.80
2022-10-11T06:56:19.955Z,9.05
2022-10-11T06:58:47.246Z,5.95
2022-10-11T07:01:20.443Z,6.35
2022-10-11T07:03:48.219Z,8.73
2022-10-11T07:06:17.600Z,10.38
2022-10-11T07:08:44.171Z,9.98
2022-10-11T07:11:13.599Z,7.95
2022-10-11T07:13:40.924Z,13.13
2022-10-11T07:16:12.607Z,10.00
2022-10-11T07:18:39.656Z,9.80
2022-10-11T07:21:08.696Z,14.27
2022-10-11T07:23:35.347Z,7.40
2022-10-11T07:26:02.329Z,9.15
2022-10-11T07:28:30.525Z,10.15
2022-10-11T07:30:58.835Z,8.43
2022-10-11T07:33:25.404Z,6.68
2022-10-11T07:35:56.369Z,14.02
2022-10-11T07:38:22.906Z,17.88
2022-10-11T07:40:49.585Z,14.63
2022-10-11T07:43:16.306Z,15.35
2022-10-11T07:45:45.382Z,16.25
2022-10-11T07:48:11.950Z,18.05
2022-10-11T07:50:38.747Z,20.65
2022-10-11T07:53:05.386Z,15.07
2022-10-11T07:55:40.063Z,16.55
2022-10-11T07:58:08.593Z,14.10
2022-10-11T08:00:35.377Z,13.93
2022-10-11T08:03:06.646Z,9.80
2022-10-11T08:05:33.970Z,9.27
2022-10-11T08:08:00.611Z,7.72
2022-10-11T08:10:27.745Z,12.63
2022-10-11T08:12:54.630Z,10.82
2022-10-11T08:15:21.663Z,12.15
2022-10-11T08:17:48.231Z,14.73
2022-10-11T08:20:14.779Z,9.45
2022-10-11T08:22:41.333Z,12.60
2022-10-11T08:25:08.249Z,18.88
2022-10-11T08:27:34.834Z,12.80
2022-10-11T08:30:01.397Z,12.20
2022-10-11T08:32:29.461Z,18.52
2022-10-11T08:34:56.813Z,13.35
2022-10-11T08:37:23.449Z,9.57
2022-10-11T08:39:50.032Z,14.18
2022-10-11T08:42:32.775Z,9.95
2022-10-11T08:45:12.225Z,8.48
2022-10-11T08:47:44.893Z,10.80
2022-10-11T08:50:21.512Z,6.18
2022-10-11T08:52:59.323Z,12.65
2022-10-11T08:55:34.726Z,10.00
2022-10-11T08:58:01.924Z,9.52
2022-10-11T09:00:32.600Z,8.95
2022-10-11T09:03:36.828Z,9.32
2022-10-11T09:06:25.508Z,10.57
2022-10-11T09:09:13.363Z,10.80
2022-10-11T09:12:09.547Z,6.85
2022-10-11T09:15:03.572Z,14.70
2022-10-11T09:17:40.003Z,10.82
2022-10-11T09:20:18.547Z,12.20
2022-10-11T09:22:57.197Z,9.13
2022-10-11T09:25:39.431Z,8.00
2022-10-11T09:28:15.470Z,11.40
2022-10-11T09:30:51.133Z,10.98
2022-10-11T09:33:28.254Z,8.65
2022-10-11T09:35:57.096Z,11.00
2022-10-11T09:38:35.697Z,11.50
2022-10-11T09:41:14.621Z,12.23
2022-10-11T09:43:44.736Z,12.27
2022-10-11T09:46:35.829Z,11.15
2022-10-11T09:49:11.177Z,11.13
2022-10-11T09:51:40.370Z,12.32
2022-10-11T09:54:10.375Z,12.00
2022-10-11T09:56:43.155Z,9.80
2022-10-11T09:59:09.691Z,11.88
2022-10-11T10:01:36.766Z,13.13
2022-10-11T10:04:09.828Z,10.05
2022-10-11T10:06:37.466Z,8.65
2022-10-11T10:09:27.899Z,8.23
2022-10-11T10:11:55.450Z,8.68
2022-10-11T10:14:30.108Z,11.60
2022-10-11T10:17:14.381Z,11.55
2022-10-11T10:19:48.212Z,9.73
2022-10-11T10:22:21.411Z,9.07
2022-10-11T10:24:50.017Z,8.88
2022-10-11T10:27:28.626Z,10.48
2022-10-11T10:30:15.825Z,9.88
2022-10-11T10:32:55.515Z,7.22
2022-10-11T10:35:48.439Z,10.20
2022-10-11T10:38:35.216Z,13.57
2022-10-11T10:41:05.709Z,11.55
2022-10-11T10:43:37.491Z,8.52
2022-10-11T10:46:30.364Z,10.13
2022-10-11T10:52:23.313Z,8.02
2022-10-11T10:55:17.048Z,7.80
2022-10-11T10:58:00.373Z,5.97
2022-10-11T11:00:33.516Z,7.90
2022-10-11T11:03:10.126Z,8.65
2022-10-11T11:06:09.238Z,10.70
2022-10-11T11:08:45.037Z,5.78
2022-10-11T11:11:27.528Z,6.40
2022-10-11T11:13:56.939Z,9.02
2022-10-11T11:16:36.043Z,11.57
2022-10-11T11:19:06.632Z,7.90
2022-10-11T11:21:46.992Z,7.88
2022-10-11T11:24:35.196Z,12.98
2022-10-11T11:27:17.975Z,10.05
2022-10-11T11:30:03.362Z,8.73
2022-10-11T11:32:32.987Z,14.80
2022-10-11T11:35:05.788Z,8.27
2022-10-11T11:37:36.285Z,7.80
2022-10-11T11:40:06.738Z,10.45
2022-10-11T11:42:42.063Z,6.90
2022-10-11T11:45:17.919Z,11.88
2022-10-11T11:47:51.920Z,9.45
2022-10-11T11:50:23.894Z,6.80
2022-10-11T11:53:05.062Z,10.95
2022-10-11T11:55:38.420Z,8.93
2022-10-11T11:58:29.923Z,10.70
2022-10-11T12:01:16.382Z,11.35
2022-10-11T12:03:48.161Z,11.13
2022-10-11T12:06:14.717Z,9.45
2022-10-11T12:08:45.832Z,6.53
2022-10-11T12:11:27.250Z,8.98
2022-10-11T12:13:57.444Z,9.45
2022-10-11T12:16:24.048Z,7.70
2022-10-11T12:18:56.332Z,9.18
2022-10-11T12:21:39.954Z,7.75
2022-10-11T12:24:12.499Z,7.35
2022-10-11T12:26:50.452Z,8.25
2022-10-11T12:29:17.114Z,9.13
2022-10-11T12:31:46.337Z,11.88
2022-10-11T12:34:20.772Z,8.98
2022-10-11T12:36:50.249Z,7.20
2022-10-11T12:39:19.879Z,5.43
2022-10-11T12:42:06.026Z,8.73
2022-10-11T12:44:32.715Z,8.68
2022-10-11T12:47:32.735Z,7.05
2022-10-11T12:50:25.790Z,8.63
2022-10-11T12:53:11.229Z,6.93
2022-10-11T12:55:48.526Z,7.43
2022-10-11T12:58:29.979Z,8.93
2022-10-11T13:00:57.774Z,8.65
2022-10-11T13:03:32.520Z,7.82
2022-10-11T13:06:09.639Z,10.02
2022-10-11T13:08:40.143Z,9.70
2022-10-11T13:11:10.068Z,9.00
2022-10-11T13:13:57.380Z,9.23
2022-10-11T13:16:41.810Z,10.05
2022-10-11T13:19:13.455Z,8.00
2022-10-11T13:24:17.160Z,9.45
2022-10-11T13:26:46.747Z,11.70
2022-10-11T13:29:39.308Z,10.40
2022-10-11T13:32:17.877Z,8.38
2022-10-11T13:34:47.866Z,10.68
2022-10-11T13:37:23.992Z,8.98
2022-10-11T13:39:55.306Z,7.70
2022-10-11T13:42:28.553Z,11.30
2022-10-11T13:44:55.608Z,7.50
2022-10-11T13:47:27.407Z,9.02
2022-10-11T13:50:15.875Z,13.35
2022-10-11T13:53:02.443Z,8.20
2022-10-11T13:55:36.204Z,11.20
2022-10-11T13:58:21.908Z,11.35
2022-10-11T14:01:03.842Z,14.40
2022-10-11T14:03:45.482Z,10.05
2022-10-11T14:06:12.628Z,13.25
2022-10-11T14:08:41.957Z,10.10
2022-10-11T14:11:10.719Z,10.13
2022-10-11T14:13:42.593Z,11.60
2022-10-11T14:16:18.583Z,13.40
2022-10-11T14:18:51.772Z,7.55
2022-10-11T14:21:24.663Z,13.52
2022-10-11T14:24:12.471Z,7.10
2022-10-11T14:26:42.006Z,12.93
2022-10-11T14:29:19.306Z,9.82
2022-10-11T14:31:46.260Z,8.23
2022-10-11T14:34:18.424Z,8.98
2022-10-11T14:36:45.377Z,10.02
2022-10-11T14:39:18.120Z,14.07
2022-10-11T14:41:46.294Z,10.77
2022-10-11T14:44:13.895Z,14.50
2022-10-11T14:46:41.260Z,13.30
2022-10-11T14:49:39.729Z,11.23
2022-10-11T14:52:07.676Z,13.85
2022-10-11T14:54:34.231Z,10.38
2022-10-11T14:57:03.146Z,11.43
2022-10-11T14:59:36.951Z,9.50
2022-10-11T15:02:06.709Z,9.35
2022-10-11T15:04:33.560Z,8.23
2022-10-11T15:07:00.157Z,13.68
2022-10-11T15:09:26.806Z,9.00
2022-10-11T15:11:54.635Z,12.18
2022-10-11T15:14:23.132Z,10.68
2022-10-11T15:16:50.168Z,6.80
2022-10-11T15:19:19.503Z,9.43
2022-10-11T15:21:46.290Z,7.07
2022-10-11T15:24:13.287Z,12.00
2022-10-11T15:26:40.256Z,9.05
2022-10-11T15:29:09.972Z,13.27
2022-10-11T15:31:36.543Z,10.90
2022-10-11T15:34:03.335Z,11.20
2022-10-11T15:36:30.398Z,12.23
2022-10-11T15:38:57.247Z,10.68
2022-10-11T15:41:23.937Z,21.63
2022-10-11T15:43:50.746Z,14.82
2022-10-11T15:46:22.415Z,16.73
2022-10-11T15:51:17.269Z,14.50
2022-10-11T15:53:44.461Z,14.38
2022-10-11T15:56:19.279Z,11.68
2022-10-11T15:58:46.243Z,10.77
2022-10-11T16:01:19.262Z,13.93
2022-10-11T16:03:48.530Z,14.60
2022-10-11T16:06:16.296Z,10.15
2022-10-11T16:08:43.140Z,15.80
2022-10-11T16:11:12.833Z,13.38
2022-10-11T16:13:39.548Z,13.63
2022-10-11T16:16:09.009Z,12.43
2022-10-11T16:18:36.362Z,12.60
2022-10-11T16:21:07.760Z,14.32
2022-10-11T16:23:34.830Z,15.88
2022-10-11T16:26:05.052Z,11.73
2022-10-11T16:28:32.537Z,9.45
2022-10-11T16:30:59.387Z,15.63
2022-10-11T16:33:26.903Z,12.23
2022-10-11T16:35:53.531Z,18.00
2022-10-11T16:38:20.101Z,12.68
2022-10-11T16:40:46.672Z,15.23
2022-10-11T16:43:13.431Z,16.90
2022-10-11T16:45:40.060Z,21.70
2022-10-11T16:48:06.676Z,17.60
2022-10-11T16:50:38.324Z,27.90
2022-10-11T16:53:06.028Z,25.95
2022-10-11T16:55:32.686Z,28.52
2022-10-11T16:57:59.267Z,33.33
2022-10-11T17:00:25.894Z,45.42
2022-10-11T17:02:52.542Z,34.17
2022-10-11T17:05:19.130Z,31.77
2022-10-11T17:07:45.833Z,31.40
2022-10-11T17:10:12.397Z,28.40
2022-10-11T17:12:38.986Z,26.85
2022-10-11T17:15:06.571Z,30.27
2022-10-11T17:17:33.545Z,41.65
2022-10-11T17:20:02.157Z,32.95
2022-10-11T17:22:29.065Z,42.58
2022-10-11T17:24:55.690Z,41.92
2022-10-11T17:27:22.281Z,46.88
2022-10-11T17:29:48.824Z,45.50
2022-10-11T17:32:15.361Z,60.33
2022-10-11T17:34:41.903Z,71.88
2022-10-11T17:37:09.949Z,67.70
2022-10-11T17:39:36.506Z,62.30
2022-10-11T17:42:07.209Z,48.05
2022-10-11T17:44:34.633Z,56.92
2022-10-11T17:47:02.437Z,59.17
2022-10-11T17:49:29.037Z,53.15
2022-10-11T17:51:56.520Z,46.20
2022-10-11T17:54:23.092Z,34.90
2022-10-11T17:56:50.248Z,23.00
2022-10-11T17:59:20.876Z,20.48
2022-10-11T18:01:48.939Z,22.00
2022-10-11T18:04:18.438Z,24.48
2022-10-11T18:06:46.407Z,19.98
2022-10-11T18:09:14.345Z,29.58
2022-10-11T18:11:40.931Z,27.02
2022-10-11T18:14:08.009Z,30.65
2022-10-11T18:16:36.104Z,27.00
2022-10-11T18:19:06.096Z,23.77
2022-10-11T18:21:34.530Z,23.88
2022-10-11T18:24:10.586Z,20.30
2022-10-11T18:26:37.363Z,17.38
2022-10-11T18:29:04.734Z,15.80
2022-10-11T18:31:35.804Z,15.98
2022-10-11T18:34:04.479Z,14.55
2022-10-11T18:36:32.520Z,17.30
2022-10-11T18:39:03.663Z,18.90
2022-10-11T18:41:32.415Z,16.88
2022-10-11T18:44:04.251Z,16.60
2022-10-11T18:48:59.651Z,12.90
2022-10-11T18:51:28.861Z,13.27
2022-10-11T18:53:58.338Z,16.50
2022-10-11T18:56:26.128Z,13.60
2022-10-11T18:58:55.288Z,14.07
2022-10-11T19:01:31.392Z,21.13
2022-10-11T19:04:00.007Z,19.13
2022-10-11T19:06:32.795Z,27.67
2022-10-11T19:09:05.095Z,24.55
2022-10-11T19:11:32.244Z,24.02
2022-10-11T19:14:01.732Z,24.02
2022-10-11T19:16:30.043Z,18.75
2022-10-11T19:18:57.653Z,28.17
2022-10-11T19:21:24.712Z,22.25
2022-10-11T19:23:52.198Z,29.77
2022-10-11T19:26:29.037Z,28.63
2022-10-11T19:28:59.242Z,32.45
2022-10-11T19:31:26.053Z,30.40
2022-10-11T19:33:52.937Z,27.63
2022-10-11T19:36:19.892Z,31.00
2022-10-11T19:38:48.891Z,28.83
2022-10-11T19:41:18.860Z,20.55
2022-10-11T19:43:46.662Z,18.80
2022-10-11T19:46:20.128Z,19.77
2022-10-11T19:48:51.259Z,18.23
2022-10-11T19:51:22.508Z,17.15
2022-10-11T19:53:59.889Z,16.38
2022-10-11T19:56:28.371Z,21.30
2022-10-11T19:58:55.350Z,12.63
2022-10-11T20:01:24.582Z,18.48
2022-10-11T20:03:54.390Z,12.68
2022-10-11T20:06:22.313Z,18.30
2022-10-11T20:08:59.813Z,14.68
2022-10-11T20:11:31.489Z,19.98
2022-10-11T20:13:58.139Z,17.90
2022-10-11T20:16:28.247Z,15.30
2022-10-11T20:18:58.377Z,19.02
2022-10-11T20:21:25.977Z,14.95
2022-10-11T20:23:56.296Z,11.43
2022-10-11T20:26:25.220Z,14.40
2022-10-11T20:28:56.106Z,19.92
2022-10-11T20:31:25.990Z,12.93
2022-10-11T20:33:58.283Z,13.88
2022-10-11T20:36:27.843Z,13.68
2022-10-11T20:38:54.452Z,12.90
2022-10-11T20:41:31.127Z,12.45
2022-10-11T20:43:59.298Z,13.93
2022-10-11T20:46:28.201Z,13.07
2022-10-11T20:49:01.544Z,12.70
2022-10-11T20:51:30.194Z,15.60
2022-10-11T20:53:57.882Z,9.93
2022-10-11T20:56:24.932Z,13.65
2022-10-11T20:58:53.909Z,14.38
2022-10-11T21:01:28.955Z,14.77
2022-10-11T21:03:58.551Z,14.43
2022-10-11T21:06:25.788Z,16.85
2022-10-11T21:08:58.897Z,13.73
2022-10-11T21:11:30.014Z,12.27
2022-10-11T21:13:58.411Z,11.20
2022-10-11T21:16:25.747Z,12.88
2022-10-11T21:18:53.879Z,13.15
2022-10-11T21:21:21.308Z,11.90
2022-10-11T21:23:47.879Z,14.25
2022-10-11T21:26:17.890Z,14.20
2022-10-11T21:28:46.293Z,12.05
2022-10-11T21:31:15.259Z,10.38
2022-10-11T21:33:43.447Z,11.18
2022-10-11T21:36:18.634Z,12.48
2022-10-11T21:38:45.411Z,14.38
2022-10-11T21:41:14.591Z,10.30
2022-10-11T21:43:41.680Z,13.35
2022-10-11T21:46:12.474Z,11.20
2022-10-11T21:48:39.768Z,16.08
2022-10-11T21:51:06.977Z,11.35
2022-10-11T21:53:33.907Z,13.60
2022-10-11T21:56:01.231Z,10.73
2022-10-11T21:58:28.390Z,11.70
2022-10-11T22:00:55.074Z,15.48
2022-10-11T22:03:21.807Z,13.48
2022-10-11T22:05:48.467Z,12.35
2022-10-11T22:08:16.050Z,11.88
2022-10-11T22:10:44.132Z,11.65
2022-10-11T22:13:11.310Z,14.30
2022-10-11T22:15:38.917Z,11.20
2022-10-11T22:18:05.561Z,13.25
2022-10-11T22:20:32.904Z,11.95
2022-10-11T22:22:59.494Z,12.10
2022-10-11T22:25:26.106Z,15.35
2022-10-11T22:27:52.683Z,13.75
2022-10-11T22:30:19.259Z,12.68
2022-10-11T22:32:45.852Z,12.18
2022-10-11T22:35:12.410Z,9.07
2022-10-11T22:37:38.971Z,11.98
2022-10-11T22:40:06.094Z,11.82
2022-10-11T22:42:32.664Z,14.30
2022-10-11T22:44:59.803Z,12.27
2022-10-11T22:47:26.671Z,23.15
2022-10-11T22:49:53.264Z,15.82
2022-10-11T22:52:19.828Z,10.52
2022-10-11T22:54:46.381Z,11.95
2022-10-11T22:57:12.939Z,10.02
2022-10-11T22:59:39.688Z,16.35
2022-10-11T23:02:06.221Z,15.23
2022-10-11T23:04:32.790Z,9.32
2022-10-11T23:07:04.657Z,10.43
2022-10-11T23:09:31.677Z,11.13
2022-10-11T23:11:59.134Z,13.02
2022-10-11T23:14:25.739Z,12.05
2022-10-11T23:16:52.714Z,10.02
2022-10-11T23:19:19.686Z,9.10
2022-10-11T23:21:46.853Z,9.00
2022-10-11T23:24:13.601Z,12.13
2022-10-11T23:26:40.180Z,10.65
2022-10-11T23:29:06.740Z,12.25
2022-10-11T23:31:33.379Z,10.27
2022-10-11T23:33:59.951Z,13.60
2022-10-11T23:36:26.616Z,11.70
2022-10-11T23:38:55.724Z,10.80
2022-10-11T23:41:27.884Z,7.78
2022-10-11T23:43:54.694Z,13.10
2022-10-11T23:46:21.727Z,10.00
2022-10-11T23:48:48.654Z,7.28
2022-10-11T23:51:15.281Z,8.88
2022-10-11T23:53:41.881Z,9.80
2022-10-11T23:56:10.293Z,9.32
2022-10-11T23:58:37.180Z,9.20
